Time;durP1;ratioP1;P1;durP2;ratioP2;P2;SDS_P1;SDS_P2;PMS_P1;PMS_P2;Temp;Humidity;BMP_temperature;BMP_pressure;BME280_temperature;BME280_humidity;BME280_pressure;Samples;Min_cycle;Max_cycle;Signal;HPM_P1;HPM_P2
2022/06/01 00:01:11;;;;;;;2.85;1.60;;;17.40;71.10;;;;;;5111876;28;20119;-76
2022/06/01 00:03:39;;;;;;;4.65;1.88;;;17.50;71.20;;;;;;5111004;28;20058;-76
2022/06/01 00:06:05;;;;;;;3.17;1.55;;;17.40;71.20;;;;;;5111587;28;20023;-78
2022/06/01 00:08:31;;;;;;;3.92;1.63;;;17.50;71.20;;;;;;5111605;28;20031;-77
2022/06/01 00:10:57;;;;;;;1.90;1.33;;;17.50;71.40;;;;;;5111913;28;20027;-76
2022/06/01 00:13:23;;;;;;;6.07;1.35;;;17.40;71.70;;;;;;5111350;28;20453;-79
2022/06/01 00:15:49;;;;;;;4.03;1.52;;;17.40;71.80;;;;;;5111226;28;20019;-76
2022/06/01 00:18:15;;;;;;;4.45;1.73;;;17.40;72.10;;;;;;5115111;28;20030;-76
2022/06/01 00:20:42;;;;;;;4.93;1.60;;;17.40;72.00;;;;;;5114756;28;20073;-76
2022/06/01 00:23:08;;;;;;;1.63;1.33;;;17.40;72.10;;;;;;5115429;28;20515;-78
2022/06/01 00:25:34;;;;;;;3.42;1.30;;;17.40;72.30;;;;;;5115175;28;20073;-78
2022/06/01 00:27:59;;;;;;;3.63;1.63;;;17.40;72.40;;;;;;5115351;28;20028;-77
2022/06/01 00:30:26;;;;;;;4.72;1.45;;;17.40;72.70;;;;;;5116225;28;20020;-78
2022/06/01 00:32:52;;;;;;;1.40;1.30;;;17.40;72.80;;;;;;5114947;28;20047;-77
2022/06/01 00:35:20;;;;;;;2.78;1.25;;;17.40;72.80;;;;;;5114903;28;20036;-77
2022/06/01 00:37:46;;;;;;;4.65;1.58;;;17.40;72.90;;;;;;5114469;28;20015;-77
2022/06/01 00:40:14;;;;;;;2.40;1.40;;;17.40;73.00;;;;;;5115065;28;20030;-77
2022/06/01 00:42:43;;;;;;;3.42;1.77;;;17.30;73.00;;;;;;5114378;28;20085;-78
2022/06/01 00:45:11;;;;;;;1.95;1.25;;;17.30;73.00;;;;;;5116076;28;20028;-78
2022/06/01 00:47:37;;;;;;;2.85;1.45;;;17.20;73.20;;;;;;5115563;28;20136;-78
2022/06/01 00:50:13;;;;;;;3.35;1.50;;;17.20;73.60;;;;;;5114836;28;20047;-77
2022/06/01 00:52:50;;;;;;;3.00;1.60;;;17.20;73.80;;;;;;5114230;28;20028;-77
2022/06/01 00:55:47;;;;;;;1.70;1.40;;;17.10;73.90;;;;;;5115902;28;20038;-77
2022/06/01 00:58:19;;;;;;;1.70;1.38;;;17.10;74.00;;;;;;5093290;28;20046;-77
2022/06/01 01:00:48;;;;;;;1.70;1.50;;;17.00;74.30;;;;;;5113719;28;20130;-78
2022/06/01 01:03:15;;;;;;;2.20;1.60;;;17.00;74.40;;;;;;5114240;28;20122;-77
2022/06/01 01:05:45;;;;;;;2.67;1.50;;;16.90;74.60;;;;;;5114279;28;20020;-78
2022/06/01 01:08:12;;;;;;;4.60;1.75;;;16.80;74.90;;;;;;5114941;28;20027;-78
2022/06/01 01:10:38;;;;;;;2.95;1.45;;;16.90;75.20;;;;;;5113807;28;20065;-79
2022/06/01 01:13:08;;;;;;;3.35;1.55;;;16.80;75.30;;;;;;5114284;28;20058;-77
2022/06/01 01:15:42;;;;;;;1.67;1.38;;;16.90;75.30;;;;;;5113834;28;20020;-78
2022/06/01 01:18:13;;;;;;;1.67;1.33;;;16.90;75.60;;;;;;5114606;28;20111;-77
2022/06/01 01:21:13;;;;;;;2.35;1.50;;;16.80;75.70;;;;;;5113953;28;20023;-78
2022/06/01 01:23:48;;;;;;;3.13;1.50;;;16.70;76.30;;;;;;5113934;28;20396;-77
2022/06/01 01:26:14;;;;;;;5.63;1.55;;;16.70;76.40;;;;;;5114641;28;20072;-76
2022/06/01 01:28:41;;;;;;;5.07;1.65;;;16.60;76.40;;;;;;5114357;28;20020;-77
2022/06/01 01:31:12;;;;;;;2.58;1.58;;;16.70;76.60;;;;;;5113845;28;20096;-76
2022/06/01 01:33:38;;;;;;;3.57;1.33;;;16.70;76.90;;;;;;5114620;28;20116;-76
2022/06/01 01:36:11;;;;;;;6.22;1.50;;;16.60;76.80;;;;;;5115288;28;20024;-76
2022/06/01 01:38:54;;;;;;;2.20;1.33;;;16.60;76.90;;;;;;5113471;28;20055;-76
2022/06/01 01:41:50;;;;;;;2.42;1.67;;;16.60;77.00;;;;;;5115504;28;20035;-77
2022/06/01 01:44:27;;;;;;;2.30;1.50;;;16.70;77.00;;;;;;5113780;28;20035;-76
2022/06/01 01:46:55;;;;;;;2.65;1.40;;;16.70;76.90;;;;;;5113226;28;20051;-76
2022/06/01 01:49:32;;;;;;;3.15;1.42;;;16.60;76.80;;;;;;5113407;28;20043;-76
2022/06/01 01:52:02;;;;;;;3.63;1.50;;;16.60;77.00;;;;;;5114812;28;20077;-77
2022/06/01 01:54:51;;;;;;;2.33;1.55;;;16.60;77.00;;;;;;5113852;28;20031;-77
2022/06/01 01:57:26;;;;;;;4.13;1.30;;;16.60;77.10;;;;;;5113686;28;20034;-77
2022/06/01 02:00:08;;;;;;;1.42;1.23;;;16.60;77.00;;;;;;5113515;28;20073;-77
2022/06/01 02:02:56;;;;;;;3.65;1.67;;;16.50;77.90;;;;;;5114486;28;20030;-78
2022/06/01 02:08:31;;;;;;;4.97;1.33;;;16.50;77.50;;;;;;5114805;28;20042;-77
2022/06/01 02:14:16;;;;;;;3.30;1.70;;;16.40;77.80;;;;;;5114770;28;20037;-77
2022/06/01 02:16:51;;;;;;;2.03;1.40;;;16.40;78.10;;;;;;5113905;28;20028;-77
2022/06/01 02:19:24;;;;;;;1.88;1.40;;;16.40;78.40;;;;;;5113580;28;20020;-77
2022/06/01 02:21:54;;;;;;;1.80;1.50;;;16.40;78.00;;;;;;5112885;28;20027;-77
2022/06/01 02:24:20;;;;;;;2.13;1.33;;;16.40;77.60;;;;;;5112912;28;20031;-77
2022/06/01 02:26:49;;;;;;;1.92;1.45;;;16.50;77.60;;;;;;5113340;28;20034;-77
2022/06/01 02:29:22;;;;;;;1.92;1.70;;;16.40;77.50;;;;;;5112940;28;20031;-77
2022/06/01 02:31:50;;;;;;;2.50;1.65;;;16.40;77.50;;;;;;5112356;28;20034;-77
2022/06/01 02:34:17;;;;;;;2.17;1.40;;;16.40;77.60;;;;;;5112640;28;20032;-77
2022/06/01 02:36:44;;;;;;;3.58;1.05;;;16.30;77.80;;;;;;5113123;28;20019;-77
2022/06/01 02:39:14;;;;;;;4.18;1.60;;;16.30;78.00;;;;;;5112797;28;20024;-77
2022/06/01 02:44:23;;;;;;;2.28;1.23;;;16.20;78.60;;;;;;5113789;28;20080;-76
2022/06/01 02:46:49;;;;;;;3.45;2.00;;;16.10;78.80;;;;;;5112925;28;20031;-77
2022/06/01 02:49:17;;;;;;;4.20;1.67;;;16.10;79.00;;;;;;5113984;28;20027;-77
2022/06/01 02:51:46;;;;;;;3.20;2.08;;;16.10;79.20;;;;;;5112040;28;20019;-77
2022/06/01 02:54:13;;;;;;;2.88;1.50;;;16.10;79.30;;;;;;5112107;28;20035;-77
2022/06/01 02:56:39;;;;;;;3.50;1.45;;;16.00;79.60;;;;;;5112942;28;20020;-77
2022/06/01 02:59:05;;;;;;;2.65;1.63;;;15.90;79.80;;;;;;5112051;28;20026;-77
2022/06/01 03:01:31;;;;;;;2.50;1.73;;;15.90;80.00;;;;;;5112517;28;20045;-76
2022/06/01 03:03:57;;;;;;;2.97;1.73;;;15.80;80.30;;;;;;5111371;28;20055;-76
2022/06/01 03:06:23;;;;;;;2.17;1.35;;;15.70;80.80;;;;;;5113699;28;20032;-76
2022/06/01 03:08:49;;;;;;;1.48;1.38;;;15.70;80.90;;;;;;5113013;28;20108;-76
2022/06/01 03:11:15;;;;;;;2.63;1.50;;;15.70;80.80;;;;;;5112214;28;20027;-77
2022/06/01 03:13:41;;;;;;;3.13;1.67;;;15.70;80.90;;;;;;5111765;28;20031;-77
2022/06/01 03:16:06;;;;;;;3.22;1.63;;;15.70;80.90;;;;;;5112435;28;20024;-76
2022/06/01 03:18:32;;;;;;;3.00;1.52;;;15.70;81.00;;;;;;5112091;28;20029;-76
2022/06/01 03:20:59;;;;;;;2.53;1.42;;;15.70;81.30;;;;;;5111495;28;20031;-76
2022/06/01 03:23:26;;;;;;;4.03;1.85;;;15.70;81.70;;;;;;5111922;28;20035;-76
2022/06/01 03:25:52;;;;;;;2.45;1.58;;;15.70;82.00;;;;;;5112834;28;20027;-76
2022/06/01 03:28:18;;;;;;;2.40;1.55;;;15.70;82.30;;;;;;5113044;28;20413;-76
2022/06/01 03:30:43;;;;;;;3.83;1.70;;;15.60;82.70;;;;;;5111365;28;20381;-76
2022/06/01 03:33:13;;;;;;;2.03;1.50;;;15.60;82.90;;;;;;5111684;28;20038;-77
2022/06/01 03:35:40;;;;;;;2.97;1.58;;;15.50;83.30;;;;;;5111646;28;20028;-77
2022/06/01 03:38:06;;;;;;;2.20;1.73;;;15.50;83.60;;;;;;5112003;28;20055;-76
2022/06/01 03:40:32;;;;;;;4.03;1.45;;;15.50;83.80;;;;;;5111128;28;20034;-76
2022/06/01 03:42:58;;;;;;;3.88;1.60;;;15.40;84.10;;;;;;5111011;28;20032;-76
2022/06/01 03:48:09;;;;;;;6.45;1.60;;;15.40;84.30;;;;;;5113383;28;20085;-76
2022/06/01 03:50:35;;;;;;;3.30;1.58;;;15.40;84.60;;;;;;5111589;28;20027;-75
2022/06/01 03:53:02;;;;;;;9.48;1.70;;;15.30;84.80;;;;;;5114515;28;20055;-76
2022/06/01 03:55:28;;;;;;;3.03;1.65;;;15.20;85.40;;;;;;5115693;28;20031;-76
2022/06/01 03:57:54;;;;;;;3.72;1.80;;;15.20;86.00;;;;;;5115049;28;20027;-76
2022/06/01 04:00:23;;;;;;;3.95;1.83;;;15.20;86.40;;;;;;5115587;28;20532;-76
2022/06/01 04:02:49;;;;;;;4.35;1.65;;;15.20;86.80;;;;;;5114879;28;20038;-75
2022/06/01 04:05:16;;;;;;;3.15;2.10;;;15.20;87.20;;;;;;5117100;28;20123;-76
2022/06/01 04:07:41;;;;;;;2.33;1.65;;;15.20;87.90;;;;;;5114981;28;20176;-76
2022/06/01 04:10:08;;;;;;;3.42;1.88;;;15.20;88.60;;;;;;5115214;28;20110;-75
2022/06/01 04:12:34;;;;;;;4.35;2.20;;;15.20;89.10;;;;;;5115252;28;20457;-76
2022/06/01 04:14:59;;;;;;;2.92;1.70;;;15.20;89.40;;;;;;5114290;28;20023;-76
2022/06/01 04:17:25;;;;;;;3.72;1.83;;;15.20;89.70;;;;;;5115056;28;20031;-75
2022/06/01 04:19:51;;;;;;;3.58;1.90;;;15.30;90.00;;;;;;5115711;28;20027;-76
2022/06/01 04:22:18;;;;;;;2.47;1.60;;;15.20;90.20;;;;;;5115421;28;20062;-76
2022/06/01 04:24:44;;;;;;;2.88;1.60;;;15.20;90.40;;;;;;5115153;28;20439;-77
2022/06/01 04:27:09;;;;;;;3.97;1.77;;;15.20;90.50;;;;;;5115966;28;20081;-76
2022/06/01 04:29:35;;;;;;;3.38;1.88;;;15.20;90.60;;;;;;5116355;28;20453;-76
2022/06/01 04:32:05;;;;;;;3.78;1.90;;;15.10;90.70;;;;;;5114634;28;20027;-76
2022/06/01 04:34:31;;;;;;;2.50;1.80;;;15.10;90.80;;;;;;5116143;28;20032;-76
2022/06/01 04:36:57;;;;;;;3.97;1.80;;;15.10;90.90;;;;;;5115045;28;20451;-76
2022/06/01 04:39:23;;;;;;;2.33;1.77;;;15.00;91.00;;;;;;5115373;28;20452;-76
2022/06/01 04:41:49;;;;;;;5.63;2.17;;;15.00;91.10;;;;;;5114694;28;20023;-76
2022/06/01 04:44:16;;;;;;;5.00;2.35;;;15.00;91.10;;;;;;5115153;28;20032;-77
2022/06/01 04:46:41;;;;;;;3.92;2.08;;;15.00;91.20;;;;;;5116015;28;20491;-78
2022/06/01 04:49:07;;;;;;;3.45;2.08;;;15.00;91.50;;;;;;5114972;28;20028;-77
2022/06/01 04:51:34;;;;;;;4.30;2.33;;;15.00;91.60;;;;;;5115087;28;20035;-77
2022/06/01 04:54:00;;;;;;;4.68;2.05;;;15.00;91.70;;;;;;5114531;28;20582;-77
2022/06/01 04:56:26;;;;;;;3.05;1.88;;;15.10;91.70;;;;;;5114869;28;20027;-76
2022/06/01 04:58:51;;;;;;;2.15;1.90;;;15.10;91.70;;;;;;5114418;28;20024;-76
2022/06/01 05:01:17;;;;;;;3.72;1.90;;;15.20;91.80;;;;;;5114690;28;20520;-76
2022/06/01 05:03:42;;;;;;;10.45;1.80;;;15.20;91.70;;;;;;5112982;28;20052;-78
2022/06/01 05:06:08;;;;;;;3.35;1.80;;;15.20;91.90;;;;;;5114505;28;20026;-77
2022/06/01 05:08:34;;;;;;;4.45;2.28;;;15.30;91.70;;;;;;5115890;28;20028;-76
2022/06/01 05:11:00;;;;;;;2.22;1.85;;;15.30;91.50;;;;;;5113906;28;20024;-77
2022/06/01 05:13:25;;;;;;;3.25;1.92;;;15.30;91.60;;;;;;5114583;28;20035;-76
2022/06/01 05:15:54;;;;;;;2.72;2.03;;;15.30;91.70;;;;;;5113955;28;20461;-76
2022/06/01 05:18:20;;;;;;;2.60;1.70;;;15.40;91.90;;;;;;5114538;28;20077;-76
2022/06/01 05:20:47;;;;;;;2.42;1.80;;;15.40;92.00;;;;;;5113814;28;20066;-77
2022/06/01 05:23:13;;;;;;;8.98;2.28;;;15.40;91.90;;;;;;5114170;28;20024;-76
2022/06/01 05:25:39;;;;;;;5.47;1.98;;;15.40;92.00;;;;;;5114284;28;20023;-76
2022/06/01 05:28:05;;;;;;;3.03;1.90;;;15.40;92.00;;;;;;5113612;28;20078;-77
2022/06/01 05:30:31;;;;;;;2.92;2.20;;;15.50;91.80;;;;;;5114047;28;20024;-76
2022/06/01 05:32:56;;;;;;;5.28;2.10;;;15.60;91.80;;;;;;5113159;28;20104;-77
2022/06/01 05:35:22;;;;;;;7.93;1.63;;;15.60;91.80;;;;;;5113808;28;20035;-76
2022/06/01 05:37:48;;;;;;;7.97;1.88;;;15.60;91.70;;;;;;5114679;28;20154;-77
2022/06/01 05:40:13;;;;;;;3.35;1.65;;;15.70;91.90;;;;;;5113752;28;20034;-76
2022/06/01 05:42:39;;;;;;;6.63;2.38;;;15.70;92.00;;;;;;5113620;28;20479;-76
2022/06/01 05:45:05;;;;;;;3.35;1.80;;;15.80;92.10;;;;;;5113004;28;20024;-77
2022/06/01 05:47:31;;;;;;;3.83;2.30;;;15.80;92.20;;;;;;5113725;28;20030;-77
2022/06/01 05:49:56;;;;;;;7.25;2.35;;;15.80;92.20;;;;;;5113168;28;20023;-77
2022/06/01 05:52:22;;;;;;;3.25;1.95;;;15.80;92.40;;;;;;5115033;28;20028;-77
2022/06/01 05:54:48;;;;;;;5.00;1.83;;;15.90;92.20;;;;;;5112925;28;20122;-77
2022/06/01 05:57:14;;;;;;;3.78;1.90;;;15.90;92.00;;;;;;5113762;28;20449;-76
2022/06/01 05:59:40;;;;;;;3.92;2.22;;;15.90;92.00;;;;;;5113337;28;20456;-77
2022/06/01 06:02:07;;;;;;;4.25;1.88;;;16.00;92.10;;;;;;5112800;28;20031;-77
2022/06/01 06:04:32;;;;;;;4.70;1.70;;;16.00;92.20;;;;;;5113235;28;20108;-77
2022/06/01 06:06:58;;;;;;;8.32;1.80;;;16.10;92.10;;;;;;5112885;28;20020;-77
2022/06/01 06:09:24;;;;;;;3.30;1.50;;;16.10;92.40;;;;;;5113457;28;20023;-77
2022/06/01 06:11:51;;;;;;;3.63;1.92;;;16.20;92.10;;;;;;5112733;28;20020;-78
2022/06/01 06:14:17;;;;;;;4.32;1.90;;;16.20;91.90;;;;;;5113266;28;20107;-77
2022/06/01 06:16:44;;;;;;;4.63;2.33;;;16.30;92.00;;;;;;5113387;28;20024;-77
2022/06/01 06:19:11;;;;;;;4.82;1.75;;;16.30;92.10;;;;;;5113246;28;20464;-78
2022/06/01 06:21:36;;;;;;;3.28;1.70;;;16.30;92.10;;;;;;5113117;28;20023;-78
2022/06/01 06:24:08;;;;;;;5.30;2.70;;;16.30;92.10;;;;;;5112427;28;20115;-75
2022/06/01 06:26:36;;;;;;;;;;;16.40;92.30;;;;;;5115131;28;20052;-75
2022/06/01 06:29:04;;;;;;;5.57;2.53;;;16.40;92.40;;;;;;5112741;28;19904;-74
2022/06/01 06:31:30;;;;;;;4.78;2.20;;;16.40;92.40;;;;;;5114500;28;20017;-77
2022/06/01 06:33:56;;;;;;;5.22;2.33;;;16.50;92.60;;;;;;5111957;28;20404;-77
2022/06/01 06:36:22;;;;;;;3.80;2.22;;;16.50;92.70;;;;;;5112713;28;20391;-77
2022/06/01 06:38:55;;;;;;;4.47;2.67;;;16.50;92.60;;;;;;5112427;28;20123;-80
2022/06/01 06:41:21;;;;;;;4.45;2.30;;;16.60;92.70;;;;;;5112750;28;20027;-77
2022/06/01 06:43:47;;;;;;;3.10;2.28;;;16.60;93.00;;;;;;5112318;28;20061;-80
2022/06/01 06:46:17;;;;;;;5.35;2.47;;;16.60;93.00;;;;;;5113617;28;20047;-77
2022/06/01 06:48:46;;;;;;;5.63;2.30;;;16.60;93.30;;;;;;5115308;28;20027;-78
2022/06/01 06:51:12;;;;;;;4.40;2.28;;;16.70;93.10;;;;;;5116402;28;20076;-78
2022/06/01 06:53:39;;;;;;;6.70;2.00;;;16.70;93.00;;;;;;5112862;28;20083;-78
2022/06/01 06:56:07;;;;;;;4.72;2.10;;;16.80;92.30;;;;;;5113049;28;20115;-77
2022/06/01 06:58:33;;;;;;;3.03;1.90;;;16.80;92.10;;;;;;5112479;28;20031;-78
2022/06/01 07:00:59;;;;;;;4.50;1.83;;;16.90;92.20;;;;;;5111801;28;20028;-78
2022/06/01 07:03:25;;;;;;;3.20;2.38;;;16.90;91.10;;;;;;5111776;28;20115;-78
2022/06/01 07:06:09;;;;;;;6.55;1.90;;;17.00;91.30;;;;;;5111582;28;20032;-74
2022/06/01 07:08:41;;;;;;;3.58;2.13;;;17.10;91.50;;;;;;5111855;28;20119;-74
2022/06/01 07:11:07;;;;;;;4.10;1.95;;;17.10;90.60;;;;;;5111593;28;20410;-75
2022/06/01 07:13:33;;;;;;;2.72;1.58;;;17.20;90.70;;;;;;5111726;28;20169;-75
2022/06/01 07:16:20;;;;;;;4.70;1.90;;;17.20;90.40;;;;;;5110709;28;20039;-76
2022/06/01 07:18:49;;;;;;;3.67;1.65;;;17.20;87.10;;;;;;5110327;28;20479;-75
2022/06/01 07:21:16;;;;;;;4.25;1.75;;;17.30;86.40;;;;;;5112255;28;20141;-74
2022/06/01 07:23:42;;;;;;;3.72;1.48;;;17.30;85.20;;;;;;5106007;28;20032;-75
2022/06/01 07:26:15;;;;;;;5.57;1.90;;;17.40;84.70;;;;;;5110898;28;20101;-78
2022/06/01 07:28:41;;;;;;;3.60;1.50;;;17.40;84.00;;;;;;5111767;28;20135;-78
2022/06/01 07:31:07;;;;;;;1.98;1.40;;;17.50;83.00;;;;;;5111189;28;20259;-77
2022/06/01 07:33:33;;;;;;;2.03;1.30;;;17.60;81.80;;;;;;5111476;28;20461;-78
2022/06/01 07:36:01;;;;;;;2.92;1.25;;;17.60;81.40;;;;;;5111250;28;20040;-78
2022/06/01 07:44:52;;;;;;;2.55;1.45;;;17.60;77.70;;;;;;5110416;28;20031;-75
2022/06/01 07:47:19;;;;;;;2.03;1.27;;;17.60;78.80;;;;;;5111634;28;20114;-75
2022/06/01 07:49:45;;;;;;;5.43;1.38;;;17.60;79.10;;;;;;5111573;28;20027;-75
2022/06/01 07:52:12;;;;;;;2.60;1.25;;;17.70;77.90;;;;;;5111550;28;20016;-75
2022/06/01 07:54:39;;;;;;;1.60;1.10;;;17.80;78.00;;;;;;5111142;28;20160;-74
2022/06/01 07:57:06;;;;;;;2.42;1.20;;;17.80;79.10;;;;;;5110140;28;20020;-75
2022/06/01 07:59:32;;;;;;;3.88;1.38;;;17.90;78.50;;;;;;5110795;28;20106;-75
2022/06/01 08:01:59;;;;;;;2.47;1.02;;;17.90;78.20;;;;;;5110750;28;20080;-75
2022/06/01 08:04:24;;;;;;;10.45;1.30;;;18.00;75.10;;;;;;5110503;28;20134;-75
2022/06/01 08:06:50;;;;;;;1.38;1.02;;;18.00;74.20;;;;;;5110911;28;20119;-77
2022/06/01 08:09:16;;;;;;;2.38;0.90;;;18.00;73.90;;;;;;5102519;28;20032;-78
2022/06/01 08:14:26;;;;;;;1.73;1.00;;;18.00;72.90;;;;;;5095685;28;20051;-74
2022/06/01 08:16:52;;;;;;;1.73;1.00;;;18.10;72.90;;;;;;5108085;28;20027;-75
2022/06/01 08:19:19;;;;;;;1.38;0.80;;;18.10;72.70;;;;;;5111257;28;20031;-73
2022/06/01 08:21:45;;;;;;;1.30;0.93;;;18.20;72.00;;;;;;5111189;28;20028;-74
2022/06/01 08:24:12;;;;;;;2.60;0.80;;;18.20;71.20;;;;;;5110914;28;20521;-74
2022/06/01 08:26:37;;;;;;;1.60;0.80;;;18.20;71.60;;;;;;5110664;28;20320;-74
2022/06/01 08:29:04;;;;;;;2.20;1.20;;;18.30;71.00;;;;;;5110345;28;20036;-73
2022/06/01 08:31:31;;;;;;;1.58;0.80;;;18.40;70.30;;;;;;5112069;28;20066;-80
2022/06/01 08:33:57;;;;;;;3.85;0.88;;;18.30;68.70;;;;;;5112614;28;20034;-80
2022/06/01 08:36:23;;;;;;;2.63;0.80;;;18.20;69.10;;;;;;5111509;28;20035;-80
2022/06/01 08:38:49;;;;;;;5.95;0.98;;;18.30;69.00;;;;;;5108646;28;20024;-79
2022/06/01 08:41:17;;;;;;;2.78;1.08;;;18.40;68.90;;;;;;5114781;28;20055;-79
2022/06/01 08:43:50;;;;;;;1.88;0.93;;;18.40;68.90;;;;;;5116433;28;20032;-77
2022/06/01 08:46:18;;;;;;;5.05;0.88;;;18.50;68.70;;;;;;5115222;28;20028;-77
2022/06/01 08:48:55;;;;;;;1.90;0.80;;;18.60;68.60;;;;;;5116916;28;20028;-77
2022/06/01 08:51:25;;;;;;;1.60;0.80;;;18.70;67.70;;;;;;5115240;28;20605;-76
2022/06/01 08:53:52;;;;;;;1.40;0.73;;;18.70;67.40;;;;;;5117591;28;20168;-81
2022/06/01 08:56:30;;;;;;;3.17;1.02;;;18.70;67.00;;;;;;5115973;28;20431;-80
2022/06/01 08:59:21;;;;;;;1.63;1.05;;;18.80;66.70;;;;;;5105539;28;20031;-78
2022/06/01 09:02:16;;;;;;;2.67;0.98;;;18.80;66.50;;;;;;5080333;28;20032;-77
2022/06/01 09:04:45;;;;;;;1.38;0.80;;;18.90;66.30;;;;;;5113774;28;20048;-76
2022/06/01 09:07:19;;;;;;;1.33;1.00;;;18.90;67.10;;;;;;5113736;28;20054;-78
2022/06/01 09:10:04;;;;;;;5.30;1.13;;;19.00;66.10;;;;;;5105463;28;20142;-77
2022/06/01 09:12:31;;;;;;;6.72;1.10;;;19.00;66.10;;;;;;5113830;28;20465;-77
2022/06/01 09:14:58;;;;;;;2.25;0.80;;;19.10;65.80;;;;;;5113365;28;20385;-76
2022/06/01 09:17:24;;;;;;;1.77;0.73;;;19.10;65.90;;;;;;5111150;28;20050;-76
2022/06/01 09:22:42;;;;;;;3.30;0.77;;;19.20;65.30;;;;;;5114801;28;20092;-75
2022/06/01 09:25:12;;;;;;;1.65;0.75;;;19.30;66.10;;;;;;5112989;28;20444;-76
2022/06/01 09:27:42;;;;;;;1.40;1.02;;;19.40;66.10;;;;;;5113970;28;20035;-77
2022/06/01 09:30:18;;;;;;;2.90;1.10;;;19.40;65.30;;;;;;5113707;28;20543;-76
2022/06/01 09:33:02;;;;;;;1.83;0.95;;;19.40;65.20;;;;;;5114984;28;20456;-76
2022/06/01 09:35:33;;;;;;;2.75;0.98;;;19.50;65.40;;;;;;5113638;28;20400;-77
2022/06/01 09:38:03;;;;;;;3.58;1.10;;;19.60;66.30;;;;;;5113936;28;20035;-76
2022/06/01 09:40:36;;;;;;;1.65;0.95;;;19.70;65.40;;;;;;5113684;28;20058;-77
2022/06/01 09:43:04;;;;;;;3.95;0.90;;;19.60;65.20;;;;;;5113219;28;20499;-78
2022/06/01 09:45:48;;;;;;;2.00;0.77;;;19.60;64.80;;;;;;5113520;28;20043;-77
2022/06/01 09:48:21;;;;;;;3.17;0.90;;;19.70;65.70;;;;;;5103000;28;20024;-77
2022/06/01 09:51:17;;;;;;;3.28;1.08;;;19.80;64.20;;;;;;5107414;28;20023;-77
2022/06/01 09:53:47;;;;;;;2.72;1.15;;;19.80;63.70;;;;;;5111680;28;20027;-75
2022/06/01 09:56:30;;;;;;;2.88;0.82;;;19.90;64.10;;;;;;5112289;28;20320;-76
2022/06/01 10:07:19;;;;;;;2.90;1.08;;;20.20;63.70;;;;;;5110799;28;20121;-78
2022/06/01 10:10:00;;;;;;;3.10;1.65;;;20.30;62.90;;;;;;5112067;28;20096;-75
2022/06/01 10:12:53;;;;;;;1.75;1.05;;;20.40;61.80;;;;;;5112508;28;20032;-77
2022/06/01 10:15:25;;;;;;;1.58;0.82;;;20.40;61.90;;;;;;5112897;28;20032;-78
2022/06/01 10:17:56;;;;;;;1.27;0.80;;;20.50;62.10;;;;;;5112595;28;20023;-77
2022/06/01 10:20:37;;;;;;;;;;;20.60;62.30;;;;;;5112277;28;20039;-76
2022/06/01 10:23:34;;;;;;;1.98;0.63;;;20.60;61.70;;;;;;5112471;28;20276;-76
2022/06/01 10:26:17;;;;;;;1.20;0.70;;;20.60;61.50;;;;;;5112003;28;20456;-77
2022/06/01 10:28:49;;;;;;;4.13;0.65;;;20.60;60.50;;;;;;5112074;28;20157;-77
2022/06/01 10:31:42;;;;;;;2.50;0.60;;;20.70;59.20;;;;;;5111802;28;20241;-76
2022/06/01 10:34:45;;;;;;;3.58;0.60;;;20.80;59.10;;;;;;5100366;28;20036;-77
2022/06/01 10:37:37;;;;;;;2.70;1.10;;;20.80;59.80;;;;;;5095542;28;20054;-77
2022/06/01 10:40:15;;;;;;;1.55;0.70;;;20.80;60.00;;;;;;5112858;28;20055;-76
2022/06/01 10:43:29;;;;;;;2.35;0.82;;;20.90;60.70;;;;;;5097794;28;20358;-77
2022/06/01 10:45:45;;;;;;;2.05;0.90;;;21.00;59.80;;;;;;5092505;28;20071;-76
2022/06/01 10:48:29;;;;;;;0.82;0.70;;;21.10;59.10;;;;;;5100994;28;20048;-77
2022/06/01 10:51:19;;;;;;;1.08;0.60;;;21.20;59.10;;;;;;5107542;28;20028;-77
2022/06/01 10:54:11;;;;;;;1.60;0.73;;;21.40;57.70;;;;;;5098380;28;20122;-77
2022/06/01 10:56:37;;;;;;;2.25;0.57;;;21.60;57.70;;;;;;5098024;28;20103;-76
2022/06/01 10:59:14;;;;;;;1.83;0.90;;;21.70;57.50;;;;;;5091450;28;20454;-77
2022/06/01 11:02:02;;;;;;;1.23;0.90;;;21.70;56.10;;;;;;5112436;28;20469;-77
2022/06/01 11:04:47;;;;;;;3.38;0.57;;;21.80;56.30;;;;;;5098932;28;20081;-77
2022/06/01 11:07:22;;;;;;;0.77;0.68;;;21.80;55.20;;;;;;5090902;28;20028;-77
2022/06/01 11:10:12;;;;;;;2.90;0.82;;;21.70;55.30;;;;;;5109339;28;20028;-76
2022/06/01 11:12:45;;;;;;;2.60;0.93;;;21.80;55.40;;;;;;5099029;28;20031;-77
2022/06/01 11:15:32;;;;;;;3.20;1.27;;;22.00;54.90;;;;;;5092750;28;20034;-77
2022/06/01 11:18:26;;;;;;;3.10;1.23;;;21.90;53.70;;;;;;5102914;28;20119;-76
2022/06/01 11:21:12;;;;;;;5.25;2.08;;;21.90;54.50;;;;;;5090701;28;20176;-77
2022/06/01 11:23:56;;;;;;;4.13;2.00;;;22.00;54.00;;;;;;5096861;28;20027;-77
2022/06/01 11:26:28;;;;;;;2.20;1.25;;;22.00;54.50;;;;;;5099838;28;20083;-77
2022/06/01 11:28:59;;;;;;;3.60;0.60;;;22.10;53.30;;;;;;5108706;28;20094;-76
2022/06/01 11:31:26;;;;;;;;;;;21.90;52.10;;;;;;5108170;28;20024;-76
2022/06/01 11:33:58;;;;;;;2.78;0.70;;;21.80;51.70;;;;;;5098737;28;20272;-76
2022/06/01 11:36:36;;;;;;;3.13;0.75;;;21.80;51.10;;;;;;5111653;28;20028;-77
2022/06/01 11:39:04;;;;;;;2.55;0.65;;;21.80;50.60;;;;;;5112128;28;20035;-76
2022/06/01 11:41:35;;;;;;;0.90;0.50;;;21.90;51.30;;;;;;5114551;28;20110;-76
2022/06/01 11:44:13;;;;;;;1.43;0.50;;;22.00;50.30;;;;;;5111121;28;20028;-77
2022/06/01 11:46:50;;;;;;;1.60;0.50;;;22.10;50.40;;;;;;5098595;28;20033;-78
2022/06/01 11:49:31;;;;;;;2.88;0.60;;;22.20;50.90;;;;;;5109939;28;20490;-77
2022/06/01 11:52:11;;;;;;;2.35;0.57;;;22.40;50.60;;;;;;5111002;28;20024;-76
2022/06/01 11:54:37;;;;;;;2.28;0.60;;;22.60;50.00;;;;;;5097665;28;20032;-77
2022/06/01 11:57:39;;;;;;;1.30;0.60;;;22.70;48.80;;;;;;5109337;28;20472;-76
2022/06/01 12:00:19;;;;;;;3.65;1.40;;;22.60;48.40;;;;;;5101403;28;20024;-76
2022/06/01 12:02:48;;;;;;;3.15;0.65;;;22.50;48.00;;;;;;5105539;28;20024;-76
2022/06/01 12:05:20;;;;;;;2.08;0.50;;;22.50;47.90;;;;;;5093345;28;20084;-77
2022/06/01 12:07:53;;;;;;;5.05;0.55;;;22.60;47.50;;;;;;5112266;28;20020;-77
2022/06/01 12:10:31;;;;;;;0.75;0.50;;;22.90;46.70;;;;;;5092173;28;20035;-77
2022/06/01 12:13:02;;;;;;;5.20;0.77;;;22.90;46.80;;;;;;5103532;28;20085;-80
2022/06/01 12:16:12;;;;;;;4.95;0.57;;;22.90;46.20;;;;;;5115069;28;20028;-76
2022/06/01 12:18:38;;;;;;;2.17;0.63;;;22.80;46.30;;;;;;5079963;28;20051;-77
2022/06/01 12:21:24;;;;;;;1.45;0.70;;;22.90;46.70;;;;;;5111644;28;20388;-76
2022/06/01 12:29:56;;;;;;;54.72;27.08;;;23.60;46.30;;;;;;5116326;28;20442;-77
2022/06/01 12:32:21;;;;;;;13.55;3.78;;;23.70;47.00;;;;;;5114193;28;20027;-76
2022/06/01 12:35:02;;;;;;;35.08;10.40;;;23.60;46.60;;;;;;5115058;28;20396;-77
2022/06/01 12:37:46;;;;;;;35.72;12.82;;;23.40;46.30;;;;;;5082281;28;20552;-77
2022/06/01 12:40:17;;;;;;;4.43;1.88;;;23.20;47.00;;;;;;5104590;28;20028;-79
2022/06/01 12:42:47;;;;;;;5.53;2.70;;;23.20;46.70;;;;;;5114542;28;20019;-79
2022/06/01 12:45:18;;;;;;;1.88;0.98;;;23.30;46.60;;;;;;5111430;28;20034;-77
2022/06/01 12:47:59;;;;;;;15.70;5.25;;;23.30;46.40;;;;;;5102122;28;20476;-79
2022/06/01 12:50:29;;;;;;;6.65;3.33;;;23.50;46.60;;;;;;5102307;28;20032;-78
2022/06/01 12:53:17;;;;;;;12.57;4.00;;;23.70;46.60;;;;;;5110793;28;20473;-79
2022/06/01 12:55:44;;;;;;;5.40;1.73;;;23.70;46.10;;;;;;5103915;28;20062;-77
2022/06/01 12:58:21;;;;;;;1.88;1.00;;;23.80;45.60;;;;;;5113844;28;20499;-78
2022/06/01 13:00:50;;;;;;;1.25;0.77;;;23.80;45.10;;;;;;5099007;28;20020;-77
2022/06/01 13:03:19;;;;;;;2.10;0.68;;;24.00;45.40;;;;;;5110566;28;20035;-77
2022/06/01 13:05:49;;;;;;;6.47;0.90;;;24.10;44.80;;;;;;5096923;28;20085;-79
2022/06/01 13:08:22;;;;;;;2.47;0.68;;;24.10;44.70;;;;;;5096559;28;20076;-76
2022/06/01 13:10:48;;;;;;;1.58;0.60;;;24.30;44.70;;;;;;5097080;28;20077;-77
2022/06/01 13:13:29;;;;;;;6.10;1.73;;;24.50;45.10;;;;;;5095941;28;20065;-76
2022/06/01 13:15:57;;;;;;;;;;;24.70;45.50;;;;;;5097314;28;20027;-77
2022/06/01 13:18:31;;;;;;;1.23;0.55;;;24.70;45.30;;;;;;5096071;28;19949;-76
2022/06/01 13:21:16;;;;;;;3.15;0.70;;;24.90;45.10;;;;;;5096896;28;20061;-77
2022/06/01 13:23:53;;;;;;;0.88;0.50;;;25.10;44.50;;;;;;5081932;28;20042;-77
2022/06/01 13:26:48;;;;;;;3.25;0.52;;;25.20;44.00;;;;;;5095337;28;20249;-77
2022/06/01 13:29:45;;;;;;;2.20;0.50;;;25.40;43.60;;;;;;5094247;28;20027;-77
2022/06/01 13:32:13;;;;;;;1.98;0.50;;;25.80;43.00;;;;;;5101098;27;20045;-78
2022/06/01 13:34:51;;;;;;;2.60;0.70;;;26.40;43.10;;;;;;5106984;27;20035;-77
2022/06/01 13:37:21;;;;;;;3.60;0.68;;;26.90;42.20;;;;;;5104407;27;20019;-77
2022/06/01 13:39:54;;;;;;;2.03;0.55;;;27.10;40.90;;;;;;5101484;27;20112;-76
2022/06/01 13:42:37;;;;;;;2.28;0.40;;;27.50;39.90;;;;;;5106218;27;20269;-78
2022/06/01 13:45:12;;;;;;;1.52;0.68;;;28.00;40.00;;;;;;5119513;27;20036;-77
2022/06/01 13:47:52;;;;;;;1.60;0.70;;;28.30;39.60;;;;;;5087734;27;20415;-78